Time;durP1;ratioP1;P1;durP2;ratioP2;P2;SDS_P1;SDS_P2;PMS_P1;PMS_P2;Temp;Humidity;BMP_temperature;BMP_pressure;BME280_temperature;BME280_humidity;BME280_pressure;Samples;Min_cycle;Max_cycle;Signal;HPM_P1;HPM_P2
2024/03/02 00:02:25;;;;;;;130.50;58.60;;;;;;;;;;106998;1253;59719;-84
2024/03/02 00:04:52;;;;;;;118.30;54.70;;;;;;;;;;106967;1254;61135;-84
2024/03/02 00:07:18;;;;;;;113.20;55.80;;;;;;;;;;107041;1253;61185;-82
2024/03/02 00:09:45;;;;;;;121.90;57.80;;;;;;;;;;107024;1256;63323;-82
2024/03/02 00:12:12;;;;;;;106.40;54.30;;;;;;;;;;107080;1253;61228;-83
2024/03/02 00:14:39;;;;;;;113.50;55.10;;;;;;;;;;106877;1257;61295;-82
2024/03/02 00:17:05;;;;;;;109.70;53.70;;;;;;;;;;107049;1256;61164;-82
2024/03/02 00:19:32;;;;;;;109.20;56.90;;;;;;;;;;107091;1253;59144;-82
2024/03/02 00:22:00;;;;;;;99.90;51.70;;;;;;;;;;107067;1254;61263;-82
2024/03/02 00:24:31;;;;;;;103.30;50.80;;;;;;;;;;107043;1254;61225;-84
2024/03/02 00:26:57;;;;;;;99.30;48.40;;;;;;;;;;107049;1253;61226;-82
2024/03/02 00:29:24;;;;;;;98.90;50.20;;;;;;;;;;107024;1254;61155;-83
2024/03/02 00:31:51;;;;;;;100.50;48.00;;;;;;;;;;107076;1253;61128;-82
2024/03/02 00:34:17;;;;;;;109.30;50.20;;;;;;;;;;107080;1253;61189;-82
2024/03/02 00:36:44;;;;;;;109.40;50.80;;;;;;;;;;107088;1256;61329;-83
2024/03/02 00:39:13;;;;;;;109.40;46.60;;;;;;;;;;106912;1254;62462;-81
2024/03/02 00:41:40;;;;;;;106.70;45.10;;;;;;;;;;109446;1252;58886;-83
2024/03/02 00:44:06;;;;;;;90.10;43.20;;;;;;;;;;108856;1253;59144;-83
2024/03/02 00:46:36;;;;;;;102.30;44.00;;;;;;;;;;106936;1253;61301;-82
2024/03/02 00:49:11;;;;;;;102.70;45.80;;;;;;;;;;107150;1254;61218;-82
2024/03/02 00:51:38;;;;;;;89.60;45.00;;;;;;;;;;107073;1256;61147;-82
2024/03/02 00:54:05;;;;;;;84.50;44.80;;;;;;;;;;106416;1251;61346;-82
2024/03/02 00:56:32;;;;;;;96.40;43.00;;;;;;;;;;107127;1251;59861;-82
2024/03/02 00:58:58;;;;;;;90.70;44.70;;;;;;;;;;107155;1251;61238;-81
2024/03/02 01:01:25;;;;;;;91.10;43.60;;;;;;;;;;107099;1251;61439;-81
2024/03/02 01:03:52;;;;;;;96.70;44.90;;;;;;;;;;107132;1251;59731;-83
2024/03/02 01:06:18;;;;;;;87.30;40.50;;;;;;;;;;109551;1251;58816;-82
2024/03/02 01:08:46;;;;;;;94.90;42.50;;;;;;;;;;109020;1251;61181;-83
2024/03/02 01:11:12;;;;;;;83.20;38.30;;;;;;;;;;107163;1251;61904;-83
2024/03/02 01:13:39;;;;;;;80.00;37.50;;;;;;;;;;107123;1256;61055;-82
2024/03/02 01:16:05;;;;;;;82.80;40.80;;;;;;;;;;107067;1253;62303;-82
2024/03/02 01:18:32;;;;;;;79.80;40.70;;;;;;;;;;107075;1251;61218;-82
2024/03/02 01:20:58;;;;;;;79.20;40.40;;;;;;;;;;107143;1256;61221;-83
2024/03/02 01:23:25;;;;;;;84.00;41.20;;;;;;;;;;107101;1251;61289;-82
2024/03/02 01:25:51;;;;;;;85.90;41.30;;;;;;;;;;107194;1251;61302;-81
2024/03/02 01:28:21;;;;;;;87.90;47.30;;;;;;;;;;107091;1251;61320;-83
2024/03/02 01:30:48;;;;;;;81.40;42.30;;;;;;;;;;107184;1251;60854;-81
2024/03/02 01:33:15;;;;;;;82.90;41.70;;;;;;;;;;107087;1251;61400;-82
2024/03/02 01:35:41;;;;;;;75.70;39.20;;;;;;;;;;107208;1254;61968;-82
2024/03/02 01:38:07;;;;;;;78.30;41.30;;;;;;;;;;107171;1251;61073;-81
2024/03/02 01:40:34;;;;;;;75.90;41.00;;;;;;;;;;107203;1251;60933;-83
2024/03/02 01:43:02;;;;;;;72.70;40.30;;;;;;;;;;107215;1256;62268;-81
2024/03/02 01:45:29;;;;;;;72.70;37.70;;;;;;;;;;107215;1251;61148;-84
2024/03/02 01:47:55;;;;;;;70.80;40.70;;;;;;;;;;107097;1255;61687;-84
2024/03/02 01:50:26;;;;;;;78.20;42.40;;;;;;;;;;107154;1256;59856;-83
2024/03/02 01:52:53;;;;;;;71.80;39.40;;;;;;;;;;108223;1251;61336;-82
2024/03/02 01:55:19;;;;;;;73.40;39.70;;;;;;;;;;107157;1253;61269;-82
2024/03/02 01:57:47;;;;;;;80.70;41.10;;;;;;;;;;107176;1254;61193;-83
2024/03/02 02:00:14;;;;;;;58.20;27.80;;;;;;;;;;107039;1253;62003;-82
2024/03/02 02:02:40;;;;;;;66.60;35.50;;;;;;;;;;107088;1253;61219;-83
2024/03/02 02:05:07;;;;;;;67.30;34.90;;;;;;;;;;106858;1253;62052;-83
2024/03/02 02:07:34;;;;;;;71.10;39.00;;;;;;;;;;106932;1257;61298;-83
2024/03/02 02:10:01;;;;;;;63.90;36.50;;;;;;;;;;106886;1256;61299;-81
2024/03/02 02:12:27;;;;;;;72.60;36.10;;;;;;;;;;107168;1253;61883;-82
2024/03/02 02:14:54;;;;;;;69.20;37.90;;;;;;;;;;107096;1254;61148;-81
2024/03/02 02:17:20;;;;;;;73.80;37.00;;;;;;;;;;107097;1256;62091;-82
2024/03/02 02:19:47;;;;;;;79.80;40.20;;;;;;;;;;107082;1254;61340;-82
2024/03/02 02:22:13;;;;;;;76.40;37.30;;;;;;;;;;107058;1253;59809;-82
2024/03/02 02:24:43;;;;;;;77.10;36.30;;;;;;;;;;107031;1253;61336;-82
2024/03/02 02:27:10;;;;;;;80.70;37.20;;;;;;;;;;106982;1253;61279;-82
2024/03/02 02:29:36;;;;;;;73.20;36.00;;;;;;;;;;106995;1253;61365;-81
2024/03/02 02:32:03;;;;;;;75.10;37.00;;;;;;;;;;107071;1254;61388;-83
2024/03/02 02:34:29;;;;;;;81.20;39.40;;;;;;;;;;107078;1253;61136;-83
2024/03/02 02:36:56;;;;;;;79.40;38.90;;;;;;;;;;107104;1254;62391;-82
2024/03/02 02:39:22;;;;;;;70.30;37.30;;;;;;;;;;107093;1255;61015;-82
2024/03/02 02:41:49;;;;;;;68.80;35.10;;;;;;;;;;107115;1256;61343;-82
2024/03/02 02:44:15;;;;;;;68.90;38.20;;;;;;;;;;107145;1251;61602;-83
2024/03/02 02:46:42;;;;;;;65.20;34.70;;;;;;;;;;107177;1251;61069;-82
2024/03/02 02:49:08;;;;;;;55.80;33.00;;;;;;;;;;106928;1251;61217;-82
2024/03/02 02:51:35;;;;;;;63.80;34.80;;;;;;;;;;107055;1251;61096;-83
2024/03/02 02:54:01;;;;;;;55.40;31.90;;;;;;;;;;107133;1251;61193;-83
2024/03/02 02:56:28;;;;;;;57.90;33.50;;;;;;;;;;106857;1253;61371;-82
2024/03/02 02:58:54;;;;;;;60.70;34.00;;;;;;;;;;107106;1254;61349;-83
2024/03/02 03:01:20;;;;;;;62.50;35.40;;;;;;;;;;107054;1253;61153;-82
2024/03/02 03:03:47;;;;;;;60.60;33.20;;;;;;;;;;106924;1253;61890;-83
2024/03/02 03:06:13;;;;;;;49.80;28.20;;;;;;;;;;107018;1254;61285;-83
2024/03/02 03:08:40;;;;;;;42.20;27.00;;;;;;;;;;107082;1252;61260;-83
2024/03/02 03:11:06;;;;;;;41.30;23.60;;;;;;;;;;107052;1253;61414;-81
2024/03/02 03:13:33;;;;;;;46.10;28.70;;;;;;;;;;107020;1252;61734;-81
2024/03/02 03:16:00;;;;;;;51.00;28.40;;;;;;;;;;107010;1253;61325;-82
2024/03/02 03:18:26;;;;;;;44.10;26.70;;;;;;;;;;107046;1253;61110;-81
2024/03/02 03:20:53;;;;;;;45.60;27.30;;;;;;;;;;107027;1253;61329;-82
2024/03/02 03:23:20;;;;;;;47.50;27.90;;;;;;;;;;106911;1254;61339;-81
2024/03/02 03:25:47;;;;;;;48.50;27.30;;;;;;;;;;107178;1253;61877;-82
2024/03/02 03:28:13;;;;;;;54.00;27.80;;;;;;;;;;107053;1253;61199;-83
2024/03/02 03:30:40;;;;;;;59.40;31.50;;;;;;;;;;107003;1252;61275;-83
2024/03/02 03:33:06;;;;;;;58.70;31.30;;;;;;;;;;107053;1254;61305;-81
2024/03/02 03:35:33;;;;;;;59.80;31.00;;;;;;;;;;107096;1256;61154;-81
2024/03/02 03:37:59;;;;;;;67.40;32.30;;;;;;;;;;107087;1252;61311;-81
2024/03/02 03:40:26;;;;;;;55.70;32.80;;;;;;;;;;107034;1253;62327;-82
2024/03/02 03:42:53;;;;;;;64.50;34.00;;;;;;;;;;107050;1253;63416;-82
2024/03/02 03:45:20;;;;;;;60.40;34.00;;;;;;;;;;106914;1253;61221;-83
2024/03/02 03:47:46;;;;;;;53.20;32.70;;;;;;;;;;106887;1253;61195;-83
2024/03/02 03:50:12;;;;;;;52.50;30.70;;;;;;;;;;106983;1253;60790;-82
2024/03/02 03:52:39;;;;;;;51.80;30.40;;;;;;;;;;107086;1254;61330;-83
2024/03/02 03:55:05;;;;;;;55.00;30.90;;;;;;;;;;107191;1251;59385;-82
2024/03/02 03:57:32;;;;;;;51.90;27.90;;;;;;;;;;107115;1256;61256;-83
2024/03/02 03:59:59;;;;;;;52.40;30.00;;;;;;;;;;107147;1254;61219;-82
2024/03/02 04:02:26;;;;;;;57.20;30.00;;;;;;;;;;107094;1256;61922;-81
2024/03/02 04:04:52;;;;;;;53.40;29.30;;;;;;;;;;107074;1253;61222;-83
2024/03/02 04:07:19;;;;;;;52.00;30.40;;;;;;;;;;108058;1251;61215;-82
2024/03/02 04:09:45;;;;;;;56.80;30.50;;;;;;;;;;109561;1251;59209;-82
2024/03/02 04:12:12;;;;;;;58.80;30.70;;;;;;;;;;109519;1251;58935;-82
2024/03/02 04:14:42;;;;;;;58.00;30.50;;;;;;;;;;109608;1251;62047;-83
2024/03/02 04:17:09;;;;;;;55.60;30.20;;;;;;;;;;109572;1251;58808;-83
2024/03/02 04:19:35;;;;;;;62.40;32.10;;;;;;;;;;108975;1251;61273;-83
2024/03/02 04:22:02;;;;;;;56.00;30.60;;;;;;;;;;107185;1251;59747;-83
2024/03/02 04:24:29;;;;;;;52.30;28.70;;;;;;;;;;107115;1251;61842;-83
2024/03/02 04:26:56;;;;;;;51.20;28.80;;;;;;;;;;107189;1251;61269;-82
2024/03/02 04:29:22;;;;;;;46.40;26.10;;;;;;;;;;107137;1251;61227;-82
2024/03/02 04:31:49;;;;;;;50.80;29.00;;;;;;;;;;107151;1252;63191;-83
2024/03/02 04:34:15;;;;;;;47.20;27.20;;;;;;;;;;107078;1254;61338;-82
2024/03/02 04:36:42;;;;;;;54.00;27.70;;;;;;;;;;107146;1251;61342;-81
2024/03/02 04:39:09;;;;;;;52.90;27.50;;;;;;;;;;107078;1255;61192;-82
2024/03/02 04:41:36;;;;;;;47.30;25.20;;;;;;;;;;107107;1251;61621;-83
2024/03/02 04:44:02;;;;;;;52.90;27.40;;;;;;;;;;107106;1251;61230;-83
2024/03/02 04:46:29;;;;;;;58.00;27.70;;;;;;;;;;107038;1251;61353;-82
2024/03/02 04:48:57;;;;;;;57.10;30.80;;;;;;;;;;107193;1251;62209;-82
2024/03/02 04:51:23;;;;;;;51.30;29.00;;;;;;;;;;107108;1251;61919;-82
2024/03/02 04:53:49;;;;;;;50.30;27.10;;;;;;;;;;107129;1253;61244;-82
2024/03/02 04:58:58;;;;;;;49.00;28.40;;;;;;;;;;107120;1256;59298;-82
2024/03/02 05:01:24;;;;;;;49.80;26.80;;;;;;;;;;107102;1253;61420;-84
2024/03/02 05:03:51;;;;;;;49.00;28.90;;;;;;;;;;107114;1253;59071;-83
2024/03/02 05:06:17;;;;;;;46.50;26.50;;;;;;;;;;107166;1252;61161;-81
2024/03/02 05:08:44;;;;;;;50.00;29.20;;;;;;;;;;107082;1256;61253;-83
2024/03/02 05:13:56;;;;;;;56.30;30.20;;;;;;;;;;107166;1256;61317;-82
2024/03/02 05:16:23;;;;;;;48.90;28.20;;;;;;;;;;107117;1256;61613;-83
2024/03/02 05:18:49;;;;;;;54.80;27.60;;;;;;;;;;107050;1253;59261;-83
2024/03/02 05:21:16;;;;;;;52.60;28.80;;;;;;;;;;107312;1252;61237;-83
2024/03/02 05:23:42;;;;;;;50.00;26.00;;;;;;;;;;107443;1253;61120;-82
2024/03/02 05:26:11;;;;;;;46.70;27.40;;;;;;;;;;107074;1253;61179;-81
2024/03/02 05:28:37;;;;;;;44.30;23.50;;;;;;;;;;107127;1252;61272;-82
2024/03/02 05:31:04;;;;;;;43.50;24.00;;;;;;;;;;107100;1254;61195;-83
2024/03/02 05:33:32;;;;;;;46.60;25.80;;;;;;;;;;106939;1254;61337;-83
2024/03/02 05:35:59;;;;;;;48.00;26.60;;;;;;;;;;107101;1253;61077;-82
2024/03/02 05:38:25;;;;;;;53.40;26.30;;;;;;;;;;107113;1253;61160;-82
2024/03/02 05:40:52;;;;;;;55.00;32.10;;;;;;;;;;107020;1253;61293;-82
2024/03/02 05:43:19;;;;;;;54.40;26.60;;;;;;;;;;107113;1253;62264;-81
2024/03/02 05:45:46;;;;;;;48.90;26.50;;;;;;;;;;106855;1255;253887;-83
2024/03/02 05:48:12;;;;;;;47.90;27.10;;;;;;;;;;107039;1253;61603;-82
2024/03/02 05:50:39;;;;;;;52.20;29.30;;;;;;;;;;106954;1253;61212;-83
2024/03/02 05:53:05;;;;;;;45.00;27.10;;;;;;;;;;107079;1251;61220;-83
2024/03/02 05:55:31;;;;;;;46.00;25.60;;;;;;;;;;106923;1251;62317;-82
2024/03/02 06:00:24;;;;;;;48.80;29.40;;;;;;;;;;107122;1254;61356;-83
2024/03/02 06:02:51;;;;;;;51.00;28.50;;;;;;;;;;107172;1254;61365;-83
2024/03/02 06:05:18;;;;;;;49.70;27.00;;;;;;;;;;107171;1251;61249;-81
2024/03/02 06:07:45;;;;;;;51.20;28.70;;;;;;;;;;107153;1251;61133;-83
2024/03/02 06:10:11;;;;;;;56.40;31.70;;;;;;;;;;106991;1252;61151;-83
2024/03/02 06:12:38;;;;;;;57.10;33.30;;;;;;;;;;107202;1251;61355;-82
2024/03/02 06:15:04;;;;;;;59.30;31.40;;;;;;;;;;107186;1251;61247;-83
2024/03/02 06:17:31;;;;;;;61.50;36.00;;;;;;;;;;107112;1251;59335;-82
2024/03/02 06:19:57;;;;;;;57.90;34.80;;;;;;;;;;107008;1251;61285;-83
2024/03/02 06:22:25;;;;;;;52.20;31.20;;;;;;;;;;107061;1256;61304;-82
2024/03/02 06:24:52;;;;;;;52.10;29.20;;;;;;;;;;107213;1251;61313;-82
2024/03/02 06:27:18;;;;;;;55.20;31.30;;;;;;;;;;107208;1251;59122;-83
2024/03/02 06:29:44;;;;;;;53.00;30.50;;;;;;;;;;107138;1255;61154;-82
2024/03/02 06:32:11;;;;;;;46.90;28.20;;;;;;;;;;107085;1256;62388;-83
2024/03/02 06:34:37;;;;;;;52.90;29.70;;;;;;;;;;107103;1251;59538;-81
2024/03/02 06:37:04;;;;;;;51.80;30.10;;;;;;;;;;107167;1254;61112;-82
2024/03/02 06:39:31;;;;;;;60.80;33.40;;;;;;;;;;107082;1255;62314;-83
2024/03/02 06:41:57;;;;;;;61.00;31.20;;;;;;;;;;107106;1255;63216;-83
2024/03/02 06:44:23;;;;;;;49.80;29.70;;;;;;;;;;107144;1251;61237;-81
2024/03/02 06:46:50;;;;;;;40.80;22.60;;;;;;;;;;107107;1255;61356;-82
2024/03/02 06:49:17;;;;;;;40.30;23.80;;;;;;;;;;107068;1251;61250;-82
2024/03/02 06:51:44;;;;;;;41.70;25.10;;;;;;;;;;106957;1253;61176;-81
2024/03/02 06:54:10;;;;;;;45.70;25.40;;;;;;;;;;107095;1255;61957;-83
2024/03/02 06:56:38;;;;;;;54.40;30.00;;;;;;;;;;107033;1253;61271;-83
2024/03/02 06:59:05;;;;;;;64.00;34.50;;;;;;;;;;106799;1253;61240;-82
2024/03/02 07:01:31;;;;;;;64.40;34.80;;;;;;;;;;106968;1256;61267;-82
2024/03/02 07:03:57;;;;;;;78.60;44.20;;;;;;;;;;107001;1253;61149;-82
2024/03/02 07:06:25;;;;;;;74.90;44.70;;;;;;;;;;107110;1253;61218;-83
2024/03/02 07:08:51;;;;;;;75.10;42.50;;;;;;;;;;107084;1253;61219;-83
2024/03/02 07:11:17;;;;;;;81.50;46.10;;;;;;;;;;107057;1253;61273;-81
2024/03/02 07:13:44;;;;;;;93.20;51.40;;;;;;;;;;107106;1253;61248;-82
2024/03/02 07:18:40;;;;;;;53.20;33.30;;;;;;;;;;107134;1256;62272;-83
2024/03/02 07:21:07;;;;;;;51.80;31.00;;;;;;;;;;106905;1253;61314;-81
2024/03/02 07:23:34;;;;;;;48.00;29.60;;;;;;;;;;106967;1253;61148;-82
2024/03/02 07:26:01;;;;;;;54.00;33.60;;;;;;;;;;106833;1252;62240;-83
2024/03/02 07:28:28;;;;;;;65.30;36.40;;;;;;;;;;107051;1253;61235;-82
2024/03/02 07:31:04;;;;;;;58.60;34.00;;;;;;;;;;107095;1256;61333;-82
2024/03/02 07:33:31;;;;;;;46.00;30.30;;;;;;;;;;107117;1254;61487;-82
2024/03/02 07:35:59;;;;;;;44.10;28.60;;;;;;;;;;107143;1251;61250;-82
2024/03/02 07:38:25;;;;;;;38.60;22.30;;;;;;;;;;107125;1251;61227;-81
2024/03/02 07:40:55;;;;;;;52.50;33.30;;;;;;;;;;107167;1256;61896;-81
2024/03/02 07:43:21;;;;;;;36.80;23.00;;;;;;;;;;107096;1252;61253;-81
2024/03/02 07:45:48;;;;;;;66.50;36.80;;;;;;;;;;107066;1254;61139;-83
2024/03/02 07:48:15;;;;;;;67.70;40.60;;;;;;;;;;107107;1251;61256;-82
2024/03/02 07:50:41;;;;;;;62.20;38.70;;;;;;;;;;107066;1251;61228;-81
2024/03/02 07:53:08;;;;;;;60.20;36.10;;;;;;;;;;107119;1255;62060;-81
2024/03/02 07:55:34;;;;;;;61.30;36.70;;;;;;;;;;107089;1253;61928;-81
2024/03/02 07:58:01;;;;;;;63.10;35.20;;;;;;;;;;107098;1253;61348;-82
2024/03/02 08:00:28;;;;;;;67.60;37.70;;;;;;;;;;107070;1253;61230;-82
2024/03/02 08:02:54;;;;;;;59.80;37.70;;;;;;;;;;107224;1251;61333;-81
2024/03/02 08:05:21;;;;;;;67.10;38.10;;;;;;;;;;107046;1251;61425;-81
2024/03/02 08:07:48;;;;;;;59.50;34.60;;;;;;;;;;107139;1251;61253;-81
2024/03/02 08:10:14;;;;;;;59.70;37.10;;;;;;;;;;107034;1251;61110;-81
2024/03/02 08:12:41;;;;;;;64.50;36.70;;;;;;;;;;107099;1251;59856;-82
2024/03/02 08:15:08;;;;;;;57.20;35.80;;;;;;;;;;107150;1252;61307;-81
2024/03/02 08:17:34;;;;;;;55.00;33.70;;;;;;;;;;107168;1252;61218;-82
2024/03/02 08:20:00;;;;;;;53.00;32.90;;;;;;;;;;107136;1254;59528;-83
2024/03/02 08:22:27;;;;;;;54.70;33.60;;;;;;;;;;107162;1253;61343;-83
2024/03/02 08:24:54;;;;;;;61.00;34.60;;;;;;;;;;107065;1253;61320;-83
2024/03/02 08:27:20;;;;;;;54.80;34.30;;;;;;;;;;107083;1253;61107;-83
2024/03/02 08:29:47;;;;;;;66.70;36.80;;;;;;;;;;107081;1253;61103;-81
2024/03/02 08:32:14;;;;;;;68.30;42.40;;;;;;;;;;107068;1254;61950;-81
2024/03/02 08:34:41;;;;;;;78.20;47.80;;;;;;;;;;107079;1252;61259;-83
2024/03/02 08:37:07;;;;;;;79.30;50.20;;;;;;;;;;107138;1255;61109;-81
2024/03/02 08:39:34;;;;;;;67.20;38.80;;;;;;;;;;107071;1253;61363;-83
2024/03/02 08:42:00;;;;;;;59.00;34.20;;;;;;;;;;107280;1254;61064;-81
2024/03/02 08:44:27;;;;;;;52.20;32.50;;;;;;;;;;107041;1254;61265;-83
2024/03/02 08:46:53;;;;;;;48.90;31.00;;;;;;;;;;107196;1256;61288;-83
2024/03/02 08:49:19;;;;;;;54.50;33.80;;;;;;;;;;107126;1255;61256;-83
2024/03/02 08:51:54;;;;;;;57.50;32.40;;;;;;;;;;107165;1255;61741;-81
2024/03/02 08:54:21;;;;;;;54.20;32.30;;;;;;;;;;107164;1256;61147;-83
2024/03/02 08:56:48;;;;;;;46.60;29.50;;;;;;;;;;107169;1253;61966;-82
2024/03/02 08:59:14;;;;;;;56.50;33.90;;;;;;;;;;106835;1253;61303;-83
2024/03/02 09:01:41;;;;;;;50.90;31.40;;;;;;;;;;107088;1256;61180;-83
2024/03/02 09:04:11;;;;;;;49.00;30.60;;;;;;;;;;107144;1254;61250;-84
2024/03/02 09:06:37;;;;;;;45.40;29.20;;;;;;;;;;107164;1252;61167;-81
2024/03/02 09:09:04;;;;;;;45.10;29.20;;;;;;;;;;107163;1252;61339;-82
2024/03/02 09:11:32;;;;;;;49.20;29.80;;;;;;;;;;107169;1254;61122;-83
2024/03/02 09:13:58;;;;;;;53.20;32.70;;;;;;;;;;107174;1251;60988;-81
2024/03/02 09:16:30;;;;;;;56.30;37.90;;;;;;;;;;107125;1252;61263;-83
2024/03/02 09:18:57;;;;;;;54.20;36.40;;;;;;;;;;107163;1252;61104;-83
2024/03/02 09:21:23;;;;;;;52.70;38.20;;;;;;;;;;107095;1252;61273;-81
2024/03/02 09:23:51;;;;;;;63.50;41.80;;;;;;;;;;107086;1254;61365;-81
2024/03/02 09:26:20;;;;;;;72.00;45.00;;;;;;;;;;107092;1253;61116;-82
2024/03/02 09:28:47;;;;;;;101.00;59.90;;;;;;;;;;107080;1251;61135;-83
2024/03/02 09:31:13;;;;;;;109.20;61.30;;;;;;;;;;107124;1252;62330;-83
2024/03/02 09:33:40;;;;;;;97.40;57.40;;;;;;;;;;107104;1251;59393;-81
2024/03/02 09:36:11;;;;;;;79.20;50.40;;;;;;;;;;107189;1255;61260;-83
2024/03/02 09:38:38;;;;;;;69.90;44.40;;;;;;;;;;108060;1254;61276;-81
2024/03/02 09:41:04;;;;;;;67.50;43.20;;;;;;;;;;107208;1256;61247;-82
2024/03/02 09:43:31;;;;;;;74.20;45.30;;;;;;;;;;107137;1254;61234;-83
2024/03/02 09:45:57;;;;;;;64.50;42.70;;;;;;;;;;107246;1251;61312;-83
2024/03/02 09:48:24;;;;;;;73.70;44.50;;;;;;;;;;107135;1254;59251;-81
2024/03/02 09:50:50;;;;;;;74.10;48.40;;;;;;;;;;107129;1255;59760;-82
2024/03/02 09:53:17;;;;;;;70.20;47.20;;;;;;;;;;107159;1254;62321;-84
2024/03/02 09:55:46;;;;;;;65.40;41.50;;;;;;;;;;107272;1253;59761;-83
2024/03/02 09:58:13;;;;;;;63.10;41.10;;;;;;;;;;107076;1253;62419;-83
2024/03/02 10:00:39;;;;;;;70.90;43.90;;;;;;;;;;107083;1256;63334;-84
2024/03/02 10:03:10;;;;;;;68.30;43.30;;;;;;;;;;107088;1256;61144;-84
2024/03/02 10:05:37;;;;;;;73.70;46.10;;;;;;;;;;106905;1253;61371;-83
2024/03/02 10:08:04;;;;;;;71.50;45.40;;;;;;;;;;106817;1254;61333;-84
2024/03/02 10:10:39;;;;;;;89.40;51.70;;;;;;;;;;106839;1256;61257;-83
2024/03/02 10:13:06;;;;;;;72.80;42.20;;;;;;;;;;108045;1254;61090;-82
2024/03/02 10:15:33;;;;;;;74.60;44.70;;;;;;;;;;106741;1253;61301;-83
2024/03/02 10:18:00;;;;;;;67.60;40.80;;;;;;;;;;106771;1253;61228;-82
2024/03/02 10:20:28;;;;;;;60.60;38.20;;;;;;;;;;106807;1254;61227;-82
2024/03/02 10:22:55;;;;;;;64.50;38.00;;;;;;;;;;106763;1253;61883;-82
2024/03/02 10:25:31;;;;;;;60.90;38.70;;;;;;;;;;106720;1254;62773;-82
2024/03/02 10:27:59;;;;;;;51.60;34.40;;;;;;;;;;106799;1254;61332;-84
2024/03/02 10:30:29;;;;;;;47.70;32.00;;;;;;;;;;106742;1256;61221;-84
2024/03/02 10:32:56;;;;;;;51.40;31.30;;;;;;;;;;106643;1252;61150;-84
2024/03/02 10:35:25;;;;;;;55.80;34.50;;;;;;;;;;106675;1253;61209;-84
2024/03/02 10:37:52;;;;;;;53.70;34.40;;;;;;;;;;106744;1255;61137;-83
2024/03/02 10:40:22;;;;;;;55.40;33.50;;;;;;;;;;106636;1253;61291;-82
2024/03/02 10:42:49;;;;;;;55.20;37.70;;;;;;;;;;106799;1251;61310;-81
2024/03/02 10:45:16;;;;;;;53.90;35.80;;;;;;;;;;106811;1256;61217;-82
2024/03/02 10:47:42;;;;;;;58.10;39.50;;;;;;;;;;106773;1254;61926;-81
2024/03/02 10:50:09;;;;;;;80.80;47.90;;;;;;;;;;106703;1252;61256;-84
2024/03/02 10:52:36;;;;;;;75.30;44.20;;;;;;;;;;106733;1253;62283;-83
2024/03/02 10:55:05;;;;;;;73.80;45.90;;;;;;;;;;106575;1259;59873;-84
2024/03/02 10:57:47;;;;;;;74.00;41.90;;;;;;;;;;106763;1256;61340;-82
2024/03/02 11:00:18;;;;;;;78.50;46.10;;;;;;;;;;106882;1254;61986;-82
2024/03/02 11:03:11;;;;;;;67.90;43.60;;;;;;;;;;106835;1252;61240;-82
2024/03/02 11:05:41;;;;;;;61.60;37.80;;;;;;;;;;106744;1254;61232;-84
2024/03/02 11:08:08;;;;;;;55.80;35.40;;;;;;;;;;106822;1254;61244;-82
2024/03/02 11:10:36;;;;;;;59.30;35.10;;;;;;;;;;106603;1251;61283;-82
2024/03/02 11:13:06;;;;;;;56.70;37.10;;;;;;;;;;106920;1254;61922;-82
2024/03/02 11:15:32;;;;;;;59.50;37.20;;;;;;;;;;106646;1254;61336;-83
2024/03/02 11:17:58;;;;;;;56.20;36.40;;;;;;;;;;106703;1253;61222;-82
2024/03/02 11:20:25;;;;;;;56.00;37.70;;;;;;;;;;106603;1254;61346;-81
2024/03/02 11:22:52;;;;;;;55.50;38.30;;;;;;;;;;106875;1251;61266;-82
2024/03/02 11:25:25;;;;;;;57.60;39.80;;;;;;;;;;106751;1253;61136;-82
2024/03/02 11:27:58;;;;;;;61.10;39.90;;;;;;;;;;106584;1258;61237;-84
2024/03/02 11:30:31;;;;;;;54.30;36.60;;;;;;;;;;106804;1253;61365;-82
2024/03/02 11:32:58;;;;;;;50.60;35.90;;;;;;;;;;106716;1253;61247;-83
2024/03/02 11:35:25;;;;;;;53.60;34.90;;;;;;;;;;106610;1252;61125;-82
2024/03/02 11:37:52;;;;;;;59.60;37.20;;;;;;;;;;106570;1257;62390;-81
2024/03/02 11:40:24;;;;;;;56.50;38.70;;;;;;;;;;106737;1255;61265;-84
2024/03/02 11:42:51;;;;;;;54.30;38.80;;;;;;;;;;106880;1253;61146;-82
2024/03/02 11:45:17;;;;;;;60.10;39.10;;;;;;;;;;106984;1254;62484;-83
2024/03/02 11:47:49;;;;;;;60.00;37.70;;;;;;;;;;106978;1256;61222;-83
2024/03/02 11:50:20;;;;;;;51.40;35.40;;;;;;;;;;106536;1259;62481;-81
2024/03/02 11:52:46;;;;;;;47.20;32.70;;;;;;;;;;106670;1254;61212;-82
2024/03/02 11:55:12;;;;;;;60.30;34.40;;;;;;;;;;106680;1253;61254;-82
2024/03/02 11:57:39;;;;;;;48.60;30.70;;;;;;;;;;106817;1253;61441;-81
2024/03/02 12:00:06;;;;;;;42.10;28.50;;;;;;;;;;106725;1256;61289;-83
2024/03/02 12:02:32;;;;;;;49.80;32.60;;;;;;;;;;106525;1254;61908;-83
2024/03/02 12:04:59;;;;;;;52.40;34.30;;;;;;;;;;106716;1256;62151;-84
2024/03/02 12:07:26;;;;;;;55.00;39.40;;;;;;;;;;106744;1254;61254;-84
2024/03/02 12:10:02;;;;;;;51.70;35.50;;;;;;;;;;106659;1253;61828;-83
2024/03/02 12:12:29;;;;;;;58.60;36.50;;;;;;;;;;106739;1256;61212;-84
2024/03/02 12:14:56;;;;;;;59.70;37.00;;;;;;;;;;106681;1254;61247;-82
2024/03/02 12:17:23;;;;;;;50.30;32.70;;;;;;;;;;106735;1256;61342;-83
2024/03/02 12:19:49;;;;;;;65.20;37.30;;;;;;;;;;106696;1254;61099;-83
2024/03/02 12:22:16;;;;;;;55.40;36.00;;;;;;;;;;106724;1256;61231;-83
2024/03/02 12:24:45;;;;;;;51.40;34.90;;;;;;;;;;106586;1258;61337;-82
2024/03/02 12:27:11;;;;;;;;;;;;;;;;;;106652;1257;62018;-81
2024/03/02 12:29:37;;;;;;;57.10;35.90;;;;;;;;;;106740;1256;61227;-84
2024/03/02 12:32:05;;;;;;;57.60;33.00;;;;;;;;;;106621;1257;61231;-83
2024/03/02 12:34:32;;;;;;;51.40;36.20;;;;;;;;;;106677;1257;61103;-83
2024/03/02 12:36:59;;;;;;;52.10;35.60;;;;;;;;;;106755;1256;59451;-84
2024/03/02 12:39:27;;;;;;;50.50;36.80;;;;;;;;;;106767;1258;61228;-83
2024/03/02 12:41:54;;;;;;;66.50;42.40;;;;;;;;;;106542;1255;61342;-84
2024/03/02 12:44:20;;;;;;;66.10;45.10;;;;;;;;;;106664;1256;61237;-81
2024/03/02 12:46:47;;;;;;;70.30;42.20;;;;;;;;;;106685;1256;61333;-81
2024/03/02 12:49:18;;;;;;;57.30;38.50;;;;;;;;;;106633;1254;61125;-84
2024/03/02 12:51:47;;;;;;;61.80;40.40;;;;;;;;;;106774;1253;62008;-81
2024/03/02 12:54:14;;;;;;;72.50;43.40;;;;;;;;;;106642;1253;61023;-82
2024/03/02 12:56:45;;;;;;;70.90;45.60;;;;;;;;;;106661;1254;61295;-84
2024/03/02 12:59:19;;;;;;;71.90;40.80;;;;;;;;;;106654;1254;61157;-81
2024/03/02 13:01:52;;;;;;;48.30;32.20;;;;;;;;;;106809;1256;61215;-82
2024/03/02 13:04:23;;;;;;;46.70;28.40;;;;;;;;;;106673;1256;62162;-84
2024/03/02 13:06:49;;;;;;;44.70;29.80;;;;;;;;;;106832;1256;61431;-83
2024/03/02 13:09:16;;;;;;;46.10;29.40;;;;;;;;;;106731;1254;61371;-84
2024/03/02 13:11:43;;;;;;;42.20;27.40;;;;;;;;;;106665;1254;61275;-82
2024/03/02 13:14:12;;;;;;;43.70;29.20;;;;;;;;;;106699;1254;61284;-83
2024/03/02 13:16:41;;;;;;;41.60;28.60;;;;;;;;;;106569;1253;61840;-82
2024/03/02 13:19:09;;;;;;;41.90;27.20;;;;;;;;;;106796;1254;61260;-83
2024/03/02 13:21:35;;;;;;;35.90;24.70;;;;;;;;;;106685;1254;61151;-82
2024/03/02 13:24:03;;;;;;;37.20;27.50;;;;;;;;;;106663;1256;61104;-84
2024/03/02 13:26:29;;;;;;;45.40;27.30;;;;;;;;;;106712;1255;61208;-82
2024/03/02 13:28:56;;;;;;;43.50;28.00;;;;;;;;;;106734;1253;61253;-82
2024/03/02 13:31:22;;;;;;;43.50;32.20;;;;;;;;;;106638;1254;61294;-82
2024/03/02 13:33:49;;;;;;;44.10;31.90;;;;;;;;;;106674;1256;61362;-82
2024/03/02 13:36:15;;;;;;;44.80;32.50;;;;;;;;;;106836;1256;59428;-82
2024/03/02 13:38:41;;;;;;;53.10;36.50;;;;;;;;;;106776;1255;61127;-84
2024/03/02 13:41:08;;;;;;;54.80;35.50;;;;;;;;;;106795;1256;61340;-84
2024/03/02 13:43:35;;;;;;;51.00;34.70;;;;;;;;;;106769;1251;62368;-82
2024/03/02 13:46:02;;;;;;;56.70;38.80;;;;;;;;;;106774;1255;61425;-84
2024/03/02 13:48:28;;;;;;;55.90;38.60;;;;;;;;;;106795;1257;61336;-85
2024/03/02 13:50:54;;;;;;;59.70;37.30;;;;;;;;;;106793;1256;61225;-84
2024/03/02 13:53:21;;;;;;;58.10;40.10;;;;;;;;;;106595;1256;61351;-84
2024/03/02 13:55:47;;;;;;;318.30;115.70;;;;;;;;;;106621;1254;61361;-83
2024/03/02 13:58:14;;;;;;;169.40;70.70;;;;;;;;;;106706;1256;61259;-82
2024/03/02 14:00:40;;;;;;;135.20;60.70;;;;;;;;;;106933;1256;61189;-82
2024/03/02 14:03:07;;;;;;;111.50;53.80;;;;;;;;;;106958;1254;61355;-84
2024/03/02 14:05:33;;;;;;;51.30;33.60;;;;;;;;;;106979;1256;61046;-82
2024/03/02 14:08:00;;;;;;;47.00;30.40;;;;;;;;;;106951;1255;61332;-84
2024/03/02 14:10:27;;;;;;;43.80;29.40;;;;;;;;;;106740;1256;61311;-83
2024/03/02 14:12:55;;;;;;;89.10;38.30;;;;;;;;;;107017;1252;61292;-82
2024/03/02 14:15:22;;;;;;;402.70;168.60;;;;;;;;;;107067;1254;61122;-84